sensor_id;sensor_type;location;lat;lon;timestamp;P1;durP1;ratioP1;P2;durP2;ratioP2
66402;SDS011;53212;52.112;5.144;2022-09-09T00:04:15;1.80;;;0.90;;
66402;SDS011;53212;52.112;5.144;2022-09-09T00:09:57;1.40;;;0.70;;
66402;SDS011;53212;52.112;5.144;2022-09-09T00:15:22;3.70;;;1.20;;
66402;SDS011;53212;52.112;5.144;2022-09-09T00:18:23;2.50;;;1.20;;
66402;SDS011;53212;52.112;5.144;2022-09-09T00:20:58;1.10;;;0.80;;
66402;SDS011;53212;52.112;5.144;2022-09-09T00:23:40;1.40;;;0.90;;
66402;SDS011;53212;52.112;5.144;2022-09-09T00:26:51;4.60;;;1.30;;
66402;SDS011;53212;52.112;5.144;2022-09-09T00:32:16;3.10;;;1.30;;
66402;SDS011;53212;52.112;5.144;2022-09-09T00:34:55;1.70;;;0.90;;
66402;SDS011;53212;52.112;5.144;2022-09-09T00:37:24;3.90;;;1.80;;
66402;SDS011;53212;52.112;5.144;2022-09-09T00:39:51;2.60;;;1.10;;
66402;SDS011;53212;52.112;5.144;2022-09-09T00:45:37;4.00;;;1.30;;
66402;SDS011;53212;52.112;5.144;2022-09-09T00:48:10;3.00;;;1.40;;
66402;SDS011;53212;52.112;5.144;2022-09-09T00:58:37;2.80;;;1.30;;
66402;SDS011;53212;52.112;5.144;2022-09-09T01:01:10;2.00;;;1.40;;
66402;SDS011;53212;52.112;5.144;2022-09-09T01:03:42;2.30;;;1.20;;
66402;SDS011;53212;52.112;5.144;2022-09-09T01:12:07;1.20;;;1.10;;
66402;SDS011;53212;52.112;5.144;2022-09-09T01:14:43;2.60;;;1.50;;
66402;SDS011;53212;52.112;5.144;2022-09-09T01:17:17;5.00;;;1.70;;
66402;SDS011;53212;52.112;5.144;2022-09-09T01:28:11;2.20;;;1.80;;
66402;SDS011;53212;52.112;5.144;2022-09-09T01:30:42;4.50;;;2.20;;
66402;SDS011;53212;52.112;5.144;2022-09-09T01:33:12;2.40;;;1.80;;
66402;SDS011;53212;52.112;5.144;2022-09-09T01:35:55;3.40;;;1.60;;
66402;SDS011;53212;52.112;5.144;2022-09-09T01:38:26;3.00;;;1.70;;
66402;SDS011;53212;52.112;5.144;2022-09-09T01:40:54;2.90;;;2.10;;
66402;SDS011;53212;52.112;5.144;2022-09-09T01:43:20;2.80;;;2.30;;
66402;SDS011;53212;52.112;5.144;2022-09-09T01:45:48;2.50;;;1.90;;
66402;SDS011;53212;52.112;5.144;2022-09-09T01:48:16;3.00;;;2.20;;
66402;SDS011;53212;52.112;5.144;2022-09-09T01:50:44;3.70;;;2.20;;
66402;SDS011;53212;52.112;5.144;2022-09-09T01:53:09;2.70;;;2.10;;
66402;SDS011;53212;52.112;5.144;2022-09-09T01:55:39;3.40;;;2.50;;
66402;SDS011;53212;52.112;5.144;2022-09-09T01:58:27;3.10;;;2.50;;
66402;SDS011;53212;52.112;5.144;2022-09-09T02:04:23;6.80;;;2.60;;
66402;SDS011;53212;52.112;5.144;2022-09-09T02:06:50;3.20;;;2.40;;
66402;SDS011;53212;52.112;5.144;2022-09-09T02:09:23;4.20;;;2.90;;
66402;SDS011;53212;52.112;5.144;2022-09-09T02:11:53;4.40;;;2.70;;
66402;SDS011;53212;52.112;5.144;2022-09-09T02:14:31;4.70;;;2.90;;
66402;SDS011;53212;52.112;5.144;2022-09-09T02:17:10;4.40;;;2.70;;
66402;SDS011;53212;52.112;5.144;2022-09-09T02:19:51;4.60;;;2.80;;
66402;SDS011;53212;52.112;5.144;2022-09-09T02:22:22;4.50;;;2.50;;
66402;SDS011;53212;52.112;5.144;2022-09-09T02:24:49;3.80;;;2.50;;
66402;SDS011;53212;52.112;5.144;2022-09-09T02:27:18;5.00;;;2.50;;
66402;SDS011;53212;52.112;5.144;2022-09-09T02:29:46;5.30;;;2.60;;
66402;SDS011;53212;52.112;5.144;2022-09-09T02:32:17;6.60;;;2.90;;
66402;SDS011;53212;52.112;5.144;2022-09-09T02:37:23;5.40;;;2.40;;
66402;SDS011;53212;52.112;5.144;2022-09-09T02:39:54;3.40;;;2.90;;
66402;SDS011;53212;52.112;5.144;2022-09-09T02:42:20;3.20;;;2.90;;
66402;SDS011;53212;52.112;5.144;2022-09-09T02:44:46;3.40;;;2.70;;
66402;SDS011;53212;52.112;5.144;2022-09-09T02:50:25;3.90;;;2.80;;
66402;SDS011;53212;52.112;5.144;2022-09-09T02:53:19;6.80;;;2.90;;
66402;SDS011;53212;52.112;5.144;2022-09-09T02:56:01;4.20;;;2.80;;
66402;SDS011;53212;52.112;5.144;2022-09-09T02:58:30;3.40;;;2.80;;
66402;SDS011;53212;52.112;5.144;2022-09-09T03:00:56;5.70;;;3.00;;
66402;SDS011;53212;52.112;5.144;2022-09-09T03:03:23;3.20;;;2.90;;
66402;SDS011;53212;52.112;5.144;2022-09-09T03:05:49;2.70;;;2.50;;
66402;SDS011;53212;52.112;5.144;2022-09-09T03:08:15;5.50;;;2.60;;
66402;SDS011;53212;52.112;5.144;2022-09-09T03:10:41;4.60;;;3.20;;
66402;SDS011;53212;52.112;5.144;2022-09-09T03:13:07;3.50;;;2.90;;
66402;SDS011;53212;52.112;5.144;2022-09-09T03:15:33;5.90;;;3.00;;
66402;SDS011;53212;52.112;5.144;2022-09-09T03:17:59;4.60;;;2.90;;
66402;SDS011;53212;52.112;5.144;2022-09-09T03:20:27;4.00;;;2.90;;
66402;SDS011;53212;52.112;5.144;2022-09-09T03:22:54;4.40;;;2.70;;
66402;SDS011;53212;52.112;5.144;2022-09-09T03:25:20;6.60;;;3.10;;
66402;SDS011;53212;52.112;5.144;2022-09-09T03:27:49;5.60;;;2.80;;
66402;SDS011;53212;52.112;5.144;2022-09-09T03:30:15;3.70;;;2.80;;
66402;SDS011;53212;52.112;5.144;2022-09-09T03:32:41;3.40;;;3.10;;
66402;SDS011;53212;52.112;5.144;2022-09-09T03:35:07;5.00;;;3.30;;
66402;SDS011;53212;52.112;5.144;2022-09-09T03:37:33;4.80;;;3.00;;
66402;SDS011;53212;52.112;5.144;2022-09-09T03:39:58;4.20;;;3.10;;
66402;SDS011;53212;52.112;5.144;2022-09-09T03:42:25;4.00;;;2.70;;
66402;SDS011;53212;52.112;5.144;2022-09-09T03:44:50;6.00;;;2.90;;
66402;SDS011;53212;52.112;5.144;2022-09-09T03:47:20;4.50;;;3.10;;
66402;SDS011;53212;52.112;5.144;2022-09-09T03:49:47;6.80;;;3.40;;
66402;SDS011;53212;52.112;5.144;2022-09-09T03:52:13;4.00;;;3.30;;
66402;SDS011;53212;52.112;5.144;2022-09-09T03:54:40;3.10;;;2.80;;
66402;SDS011;53212;52.112;5.144;2022-09-09T03:57:08;5.90;;;3.10;;
66402;SDS011;53212;52.112;5.144;2022-09-09T03:59:34;5.70;;;2.70;;
66402;SDS011;53212;52.112;5.144;2022-09-09T04:02:00;4.10;;;2.70;;
66402;SDS011;53212;52.112;5.144;2022-09-09T04:04:26;5.60;;;3.10;;
66402;SDS011;53212;52.112;5.144;2022-09-09T04:06:52;6.70;;;3.50;;
66402;SDS011;53212;52.112;5.144;2022-09-09T04:09:18;3.90;;;2.50;;
66402;SDS011;53212;52.112;5.144;2022-09-09T04:11:44;4.80;;;3.00;;
66402;SDS011;53212;52.112;5.144;2022-09-09T04:14:11;3.80;;;2.80;;
66402;SDS011;53212;52.112;5.144;2022-09-09T04:16:38;4.00;;;3.10;;
66402;SDS011;53212;52.112;5.144;2022-09-09T04:19:04;5.80;;;2.90;;
66402;SDS011;53212;52.112;5.144;2022-09-09T04:21:31;5.80;;;3.00;;
66402;SDS011;53212;52.112;5.144;2022-09-09T04:23:57;4.30;;;2.90;;
66402;SDS011;53212;52.112;5.144;2022-09-09T04:26:22;3.60;;;3.00;;
66402;SDS011;53212;52.112;5.144;2022-09-09T04:28:48;6.60;;;3.00;;
66402;SDS011;53212;52.112;5.144;2022-09-09T04:31:19;5.00;;;2.80;;
66402;SDS011;53212;52.112;5.144;2022-09-09T04:33:49;5.60;;;2.80;;
66402;SDS011;53212;52.112;5.144;2022-09-09T04:36:16;3.00;;;2.50;;
66402;SDS011;53212;52.112;5.144;2022-09-09T04:38:43;5.70;;;2.80;;
66402;SDS011;53212;52.112;5.144;2022-09-09T04:41:09;3.50;;;2.60;;
66402;SDS011;53212;52.112;5.144;2022-09-09T04:43:36;5.30;;;3.10;;
66402;SDS011;53212;52.112;5.144;2022-09-09T04:46:06;7.20;;;3.20;;
66402;SDS011;53212;52.112;5.144;2022-09-09T04:48:32;7.50;;;2.90;;
66402;SDS011;53212;52.112;5.144;2022-09-09T04:51:02;5.10;;;2.80;;
66402;SDS011;53212;52.112;5.144;2022-09-09T04:53:34;5.10;;;2.70;;
66402;SDS011;53212;52.112;5.144;2022-09-09T04:56:14;4.60;;;2.70;;
66402;SDS011;53212;52.112;5.144;2022-09-09T05:01:16;5.20;;;2.50;;
66402;SDS011;53212;52.112;5.144;2022-09-09T05:03:43;4.10;;;2.70;;
66402;SDS011;53212;52.112;5.144;2022-09-09T05:06:15;6.90;;;2.70;;
66402;SDS011;53212;52.112;5.144;2022-09-09T05:08:45;4.60;;;2.70;;
66402;SDS011;53212;52.112;5.144;2022-09-09T05:11:14;4.50;;;2.30;;
66402;SDS011;53212;52.112;5.144;2022-09-09T05:13:42;3.10;;;2.40;;
66402;SDS011;53212;52.112;5.144;2022-09-09T05:16:08;6.70;;;2.70;;
66402;SDS011;53212;52.112;5.144;2022-09-09T05:18:36;4.10;;;2.40;;
66402;SDS011;53212;52.112;5.144;2022-09-09T05:21:03;6.60;;;2.90;;
66402;SDS011;53212;52.112;5.144;2022-09-09T05:23:29;6.20;;;2.70;;
66402;SDS011;53212;52.112;5.144;2022-09-09T05:25:58;4.50;;;2.40;;
66402;SDS011;53212;52.112;5.144;2022-09-09T05:28:30;9.50;;;2.70;;
66402;SDS011;53212;52.112;5.144;2022-09-09T05:31:00;6.00;;;2.10;;
66402;SDS011;53212;52.112;5.144;2022-09-09T05:33:33;2.30;;;2.00;;
66402;SDS011;53212;52.112;5.144;2022-09-09T05:36:06;5.90;;;2.40;;
66402;SDS011;53212;52.112;5.144;2022-09-09T05:38:33;5.60;;;2.20;;
66402;SDS011;53212;52.112;5.144;2022-09-09T05:41:01;4.40;;;2.30;;
66402;SDS011;53212;52.112;5.144;2022-09-09T05:43:29;2.70;;;1.90;;
66402;SDS011;53212;52.112;5.144;2022-09-09T05:46:15;3.30;;;2.10;;
66402;SDS011;53212;52.112;5.144;2022-09-09T05:48:45;3.90;;;2.40;;
66402;SDS011;53212;52.112;5.144;2022-09-09T05:51:17;4.40;;;2.30;;
66402;SDS011;53212;52.112;5.144;2022-09-09T05:53:46;7.00;;;2.20;;
66402;SDS011;53212;52.112;5.144;2022-09-09T05:56:16;4.70;;;2.20;;
66402;SDS011;53212;52.112;5.144;2022-09-09T05:58:44;6.80;;;2.40;;
66402;SDS011;53212;52.112;5.144;2022-09-09T06:01:20;7.50;;;2.80;;
66402;SDS011;53212;52.112;5.144;2022-09-09T06:03:49;5.50;;;1.80;;
66402;SDS011;53212;52.112;5.144;2022-09-09T06:06:17;4.70;;;2.20;;
66402;SDS011;53212;52.112;5.144;2022-09-09T06:08:46;8.10;;;2.50;;
66402;SDS011;53212;52.112;5.144;2022-09-09T06:11:26;5.60;;;1.90;;
66402;SDS011;53212;52.112;5.144;2022-09-09T06:13:56;6.70;;;2.20;;
66402;SDS011;53212;52.112;5.144;2022-09-09T06:16:24;8.80;;;2.00;;
66402;SDS011;53212;52.112;5.144;2022-09-09T06:18:52;9.20;;;2.00;;
66402;SDS011;53212;52.112;5.144;2022-09-09T06:21:24;7.10;;;1.90;;
66402;SDS011;53212;52.112;5.144;2022-09-09T06:24:02;4.40;;;1.80;;
66402;SDS011;53212;52.112;5.144;2022-09-09T06:26:38;5.80;;;1.90;;
66402;SDS011;53212;52.112;5.144;2022-09-09T06:29:06;4.00;;;2.10;;
66402;SDS011;53212;52.112;5.144;2022-09-09T06:31:34;6.00;;;1.50;;
66402;SDS011;53212;52.112;5.144;2022-09-09T06:34:03;7.20;;;2.20;;
66402;SDS011;53212;52.112;5.144;2022-09-09T06:36:32;4.90;;;2.00;;
66402;SDS011;53212;52.112;5.144;2022-09-09T06:38:59;7.50;;;1.90;;
66402;SDS011;53212;52.112;5.144;2022-09-09T06:41:28;11.20;;;2.30;;
66402;SDS011;53212;52.112;5.144;2022-09-09T06:43:56;8.80;;;1.80;;
66402;SDS011;53212;52.112;5.144;2022-09-09T06:46:23;4.30;;;1.70;;
66402;SDS011;53212;52.112;5.144;2022-09-09T06:48:53;5.30;;;2.00;;
66402;SDS011;53212;52.112;5.144;2022-09-09T06:51:30;6.30;;;1.30;;
66402;SDS011;53212;52.112;5.144;2022-09-09T06:53:59;6.10;;;1.80;;
66402;SDS011;53212;52.112;5.144;2022-09-09T06:56:29;3.10;;;1.60;;
66402;SDS011;53212;52.112;5.144;2022-09-09T06:58:57;6.50;;;1.80;;
66402;SDS011;53212;52.112;5.144;2022-09-09T07:01:37;4.40;;;1.70;;
66402;SDS011;53212;52.112;5.144;2022-09-09T07:04:16;6.00;;;1.90;;
66402;SDS011;53212;52.112;5.144;2022-09-09T07:06:44;4.90;;;1.70;;
66402;SDS011;53212;52.112;5.144;2022-09-09T07:09:13;4.50;;;1.70;;
66402;SDS011;53212;52.112;5.144;2022-09-09T07:11:49;8.10;;;1.70;;
66402;SDS011;53212;52.112;5.144;2022-09-09T07:14:18;5.60;;;1.90;;
66402;SDS011;53212;52.112;5.144;2022-09-09T07:16:45;10.60;;;2.30;;
66402;SDS011;53212;52.112;5.144;2022-09-09T07:19:12;8.50;;;2.10;;
66402;SDS011;53212;52.112;5.144;2022-09-09T07:21:39;8.10;;;1.90;;
66402;SDS011;53212;52.112;5.144;2022-09-09T07:24:07;5.40;;;1.40;;
66402;SDS011;53212;52.112;5.144;2022-09-09T07:26:57;5.00;;;1.60;;
66402;SDS011;53212;52.112;5.144;2022-09-09T07:29:23;4.50;;;1.60;;
66402;SDS011;53212;52.112;5.144;2022-09-09T07:31:49;6.00;;;1.70;;
66402;SDS011;53212;52.112;5.144;2022-09-09T07:34:17;6.50;;;1.90;;
66402;SDS011;53212;52.112;5.144;2022-09-09T07:36:46;6.90;;;1.70;;
66402;SDS011;53212;52.112;5.144;2022-09-09T07:39:14;7.20;;;1.90;;
66402;SDS011;53212;52.112;5.144;2022-09-09T07:41:47;7.10;;;1.80;;
66402;SDS011;53212;52.112;5.144;2022-09-09T07:44:24;6.20;;;2.00;;
66402;SDS011;53212;52.112;5.144;2022-09-09T07:46:50;7.80;;;1.90;;
66402;SDS011;53212;52.112;5.144;2022-09-09T07:49:16;5.50;;;1.60;;
66402;SDS011;53212;52.112;5.144;2022-09-09T07:51:45;5.60;;;1.50;;
66402;SDS011;53212;52.112;5.144;2022-09-09T07:54:13;7.50;;;2.00;;
66402;SDS011;53212;52.112;5.144;2022-09-09T07:56:41;5.40;;;1.90;;
66402;SDS011;53212;52.112;5.144;2022-09-09T07:59:08;8.00;;;1.70;;
66402;SDS011;53212;52.112;5.144;2022-09-09T08:01:53;6.60;;;1.90;;
66402;SDS011;53212;52.112;5.144;2022-09-09T08:04:24;5.80;;;1.60;;
66402;SDS011;53212;52.112;5.144;2022-09-09T08:07:09;5.60;;;1.50;;
66402;SDS011;53212;52.112;5.144;2022-09-09T08:09:35;7.40;;;1.90;;
66402;SDS011;53212;52.112;5.144;2022-09-09T08:12:01;5.20;;;1.60;;
66402;SDS011;53212;52.112;5.144;2022-09-09T08:14:27;6.40;;;1.50;;
66402;SDS011;53212;52.112;5.144;2022-09-09T08:16:53;6.30;;;2.00;;
66402;SDS011;53212;52.112;5.144;2022-09-09T08:19:19;7.90;;;1.80;;
66402;SDS011;53212;52.112;5.144;2022-09-09T08:21:45;5.30;;;1.40;;
66402;SDS011;53212;52.112;5.144;2022-09-09T08:24:11;5.30;;;1.50;;
66402;SDS011;53212;52.112;5.144;2022-09-09T08:26:45;6.80;;;2.10;;
66402;SDS011;53212;52.112;5.144;2022-09-09T08:29:13;7.60;;;1.90;;
66402;SDS011;53212;52.112;5.144;2022-09-09T08:31:44;6.30;;;1.60;;
66402;SDS011;53212;52.112;5.144;2022-09-09T08:34:12;6.60;;;1.70;;
66402;SDS011;53212;52.112;5.144;2022-09-09T08:36:44;4.60;;;1.20;;
66402;SDS011;53212;52.112;5.144;2022-09-09T08:39:11;4.80;;;1.60;;
66402;SDS011;53212;52.112;5.144;2022-09-09T08:50:25;7.50;;;1.60;;
66402;SDS011;53212;52.112;5.144;2022-09-09T08:56:16;5.20;;;1.60;;
66402;SDS011;53212;52.112;5.144;2022-09-09T08:58:53;7.00;;;1.70;;
66402;SDS011;53212;52.112;5.144;2022-09-09T09:07:08;6.70;;;1.50;;
66402;SDS011;53212;52.112;5.144;2022-09-09T09:12:53;6.40;;;1.50;;
66402;SDS011;53212;52.112;5.144;2022-09-09T09:15:23;5.90;;;1.70;;
66402;SDS011;53212;52.112;5.144;2022-09-09T09:17:51;11.40;;;1.80;;
66402;SDS011;53212;52.112;5.144;2022-09-09T09:20:20;5.40;;;1.70;;
66402;SDS011;53212;52.112;5.144;2022-09-09T09:22:57;4.10;;;1.00;;
66402;SDS011;53212;52.112;5.144;2022-09-09T09:25:30;7.70;;;1.90;;
66402;SDS011;53212;52.112;5.144;2022-09-09T09:30:49;6.60;;;1.60;;
66402;SDS011;53212;52.112;5.144;2022-09-09T09:33:52;7.20;;;1.70;;
66402;SDS011;53212;52.112;5.144;2022-09-09T09:36:20;6.00;;;1.50;;
66402;SDS011;53212;52.112;5.144;2022-09-09T09:39:01;6.40;;;2.00;;
66402;SDS011;53212;52.112;5.144;2022-09-09T09:41:41;6.80;;;1.50;;
66402;SDS011;53212;52.112;5.144;2022-09-09T09:47:10;4.30;;;1.50;;
66402;SDS011;53212;52.112;5.144;2022-09-09T09:49:38;9.80;;;2.00;;
66402;SDS011;53212;52.112;5.144;2022-09-09T09:52:06;5.40;;;1.50;;
66402;SDS011;53212;52.112;5.144;2022-09-09T09:54:36;7.00;;;1.70;;
66402;SDS011;53212;52.112;5.144;2022-09-09T09:57:12;4.50;;;1.50;;
66402;SDS011;53212;52.112;5.144;2022-09-09T09:59:40;3.90;;;1.50;;
66402;SDS011;53212;52.112;5.144;2022-09-09T10:04:38;4.10;;;1.40;;
66402;SDS011;53212;52.112;5.144;2022-09-09T10:07:19;6.50;;;1.60;;
66402;SDS011;53212;52.112;5.144;2022-09-09T10:09:48;3.70;;;1.20;;
66402;SDS011;53212;52.112;5.144;2022-09-09T10:12:41;3.90;;;1.30;;
66402;SDS011;53212;52.112;5.144;2022-09-09T10:18:20;6.50;;;1.60;;
66402;SDS011;53212;52.112;5.144;2022-09-09T10:21:32;5.90;;;1.30;;
66402;SDS011;53212;52.112;5.144;2022-09-09T10:33:13;6.60;;;2.10;;
66402;SDS011;53212;52.112;5.144;2022-09-09T10:36:12;4.00;;;1.60;;
66402;SDS011;53212;52.112;5.144;2022-09-09T10:38:48;7.50;;;1.40;;
66402;SDS011;53212;52.112;5.144;2022-09-09T10:55:56;2.40;;;1.30;;
66402;SDS011;53212;52.112;5.144;2022-09-09T10:58:31;6.70;;;1.70;;
66402;SDS011;53212;52.112;5.144;2022-09-09T11:07:07;5.20;;;1.30;;
66402;SDS011;53212;52.112;5.144;2022-09-09T11:09:40;6.50;;;1.50;;
66402;SDS011;53212;52.112;5.144;2022-09-09T11:12:14;5.20;;;1.40;;
66402;SDS011;53212;52.112;5.144;2022-09-09T11:17:22;5.30;;;1.30;;
66402;SDS011;53212;52.112;5.144;2022-09-09T11:19:52;3.10;;;1.40;;
66402;SDS011;53212;52.112;5.144;2022-09-09T11:22:51;8.00;;;1.70;;
66402;SDS011;53212;52.112;5.144;2022-09-09T11:25:43;5.20;;;1.60;;
66402;SDS011;53212;52.112;5.144;2022-09-09T11:31:45;2.30;;;1.20;;
66402;SDS011;53212;52.112;5.144;2022-09-09T11:40:29;2.00;;;1.30;;
66402;SDS011;53212;52.112;5.144;2022-09-09T11:43:22;4.40;;;1.60;;
66402;SDS011;53212;52.112;5.144;2022-09-09T11:45:52;3.90;;;1.20;;
66402;SDS011;53212;52.112;5.144;2022-09-09T11:48:29;3.50;;;1.50;;
66402;SDS011;53212;52.112;5.144;2022-09-09T11:51:13;3.10;;;1.30;;
66402;SDS011;53212;52.112;5.144;2022-09-09T11:54:01;1.40;;;1.00;;
66402;SDS011;53212;52.112;5.144;2022-09-09T11:56:32;6.10;;;1.20;;
66402;SDS011;53212;52.112;5.144;2022-09-09T11:59:17;2.60;;;1.10;;
66402;SDS011;53212;52.112;5.144;2022-09-09T12:01:54;3.40;;;1.20;;
66402;SDS011;53212;52.112;5.144;2022-09-09T12:07:04;5.20;;;1.40;;
66402;SDS011;53212;52.112;5.144;2022-09-09T12:09:54;5.00;;;1.40;;
66402;SDS011;53212;52.112;5.144;2022-09-09T12:12:38;1.90;;;1.20;;
66402;SDS011;53212;52.112;5.144;2022-09-09T12:17:52;4.20;;;1.40;;
66402;SDS011;53212;52.112;5.144;2022-09-09T12:23:54;4.10;;;1.50;;
66402;SDS011;53212;52.112;5.144;2022-09-09T12:26:34;4.70;;;1.70;;
66402;SDS011;53212;52.112;5.144;2022-09-09T12:32:15;2.50;;;1.60;;
66402;SDS011;53212;52.112;5.144;2022-09-09T12:34:46;2.80;;;1.30;;
66402;SDS011;53212;52.112;5.144;2022-09-09T12:40:22;2.80;;;1.40;;
66402;SDS011;53212;52.112;5.144;2022-09-09T12:42:49;3.70;;;1.60;;
66402;SDS011;53212;52.112;5.144;2022-09-09T12:45:20;3.10;;;0.90;;
66402;SDS011;53212;52.112;5.144;2022-09-09T12:47:51;3.10;;;1.20;;
66402;SDS011;53212;52.112;5.144;2022-09-09T12:50:26;4.30;;;1.50;;
66402;SDS011;53212;52.112;5.144;2022-09-09T12:52:55;4.10;;;1.50;;
66402;SDS011;53212;52.112;5.144;2022-09-09T12:55:35;4.10;;;1.50;;
66402;SDS011;53212;52.112;5.144;2022-09-09T12:58:03;3.70;;;1.30;;
66402;SDS011;53212;52.112;5.144;2022-09-09T13:00:32;4.00;;;1.30;;
66402;SDS011;53212;52.112;5.144;2022-09-09T13:03:13;3.20;;;1.40;;
66402;SDS011;53212;52.112;5.144;2022-09-09T13:05:42;3.00;;;1.40;;
66402;SDS011;53212;52.112;5.144;2022-09-09T13:08:12;4.10;;;1.40;;
66402;SDS011;53212;52.112;5.144;2022-09-09T13:16:00;3.60;;;1.40;;
66402;SDS011;53212;52.112;5.144;2022-09-09T13:18:37;3.40;;;1.50;;
66402;SDS011;53212;52.112;5.144;2022-09-09T13:21:07;4.60;;;1.50;;
66402;SDS011;53212;52.112;5.144;2022-09-09T13:23:34;2.30;;;1.40;;
66402;SDS011;53212;52.112;5.144;2022-09-09T13:26:19;2.90;;;1.50;;
66402;SDS011;53212;52.112;5.144;2022-09-09T13:28:47;2.90;;;1.20;;
66402;SDS011;53212;52.112;5.144;2022-09-09T13:31:30;3.80;;;1.50;;
66402;SDS011;53212;52.112;5.144;2022-09-09T13:33:58;5.20;;;1.50;;
66402;SDS011;53212;52.112;5.144;2022-09-09T13:36:31;6.30;;;1.50;;
66402;SDS011;53212;52.112;5.144;2022-09-09T13:39:00;3.60;;;1.70;;
66402;SDS011;53212;52.112;5.144;2022-09-09T13:41:36;4.80;;;1.80;;
66402;SDS011;53212;52.112;5.144;2022-09-09T13:44:24;4.90;;;1.70;;
66402;SDS011;53212;52.112;5.144;2022-09-09T13:47:20;5.30;;;1.50;;
66402;SDS011;53212;52.112;5.144;2022-09-09T13:49:52;2.10;;;1.20;;
66402;SDS011;53212;52.112;5.144;2022-09-09T13:52:18;3.60;;;1.70;;
66402;SDS011;53212;52.112;5.144;2022-09-09T13:54:51;3.60;;;1.40;;
66402;SDS011;53212;52.112;5.144;2022-09-09T13:57:24;5.10;;;1.70;;
66402;SDS011;53212;52.112;5.144;2022-09-09T13:59:52;5.00;;;1.80;;
66402;SDS011;53212;52.112;5.144;2022-09-09T14:02:19;3.50;;;1.70;;
66402;SDS011;53212;52.112;5.144;2022-09-09T14:04:46;5.40;;;1.80;;
66402;SDS011;53212;52.112;5.144;2022-09-09T14:07:16;3.90;;;1.50;;
66402;SDS011;53212;52.112;5.144;2022-09-09T14:09:43;2.40;;;1.60;;
66402;SDS011;53212;52.112;5.144;2022-09-09T14:12:12;3.10;;;1.60;;
66402;SDS011;53212;52.112;5.144;2022-09-09T14:17:07;4.60;;;2.10;;
66402;SDS011;53212;52.112;5.144;2022-09-09T14:19:33;5.60;;;1.80;;
66402;SDS011;53212;52.112;5.144;2022-09-09T14:21:59;5.80;;;1.80;;
66402;SDS011;53212;52.112;5.144;2022-09-09T14:24:24;7.00;;;2.00;;
66402;SDS011;53212;52.112;5.144;2022-09-09T14:26:50;5.90;;;2.20;;
66402;SDS011;53212;52.112;5.144;2022-09-09T14:29:16;3.50;;;1.90;;
66402;SDS011;53212;52.112;5.144;2022-09-09T14:31:42;3.90;;;1.90;;
66402;SDS011;53212;52.112;5.144;2022-09-09T14:34:11;5.80;;;1.90;;
66402;SDS011;53212;52.112;5.144;2022-09-09T14:36:37;5.50;;;1.80;;
66402;SDS011;53212;52.112;5.144;2022-09-09T14:39:06;2.70;;;1.70;;
66402;SDS011;53212;52.112;5.144;2022-09-09T14:41:32;4.70;;;1.90;;
66402;SDS011;53212;52.112;5.144;2022-09-09T14:43:57;4.20;;;1.40;;
66402;SDS011;53212;52.112;5.144;2022-09-09T14:46:24;3.10;;;1.70;;
66402;SDS011;53212;52.112;5.144;2022-09-09T14:48:51;4.20;;;1.60;;
66402;SDS011;53212;52.112;5.144;2022-09-09T14:51:22;3.30;;;1.60;;
66402;SDS011;53212;52.112;5.144;2022-09-09T14:53:55;3.00;;;1.20;;
66402;SDS011;53212;52.112;5.144;2022-09-09T14:56:24;2.00;;;1.10;;
66402;SDS011;53212;52.112;5.144;2022-09-09T14:58:55;5.00;;;1.40;;
66402;SDS011;53212;52.112;5.144;2022-09-09T15:01:22;3.20;;;1.20;;
66402;SDS011;53212;52.112;5.144;2022-09-09T15:03:53;1.50;;;1.00;;
66402;SDS011;53212;52.112;5.144;2022-09-09T15:06:21;2.50;;;1.10;;
66402;SDS011;53212;52.112;5.144;2022-09-09T15:08:50;2.20;;;0.90;;
66402;SDS011;53212;52.112;5.144;2022-09-09T15:11:18;4.60;;;1.40;;
66402;SDS011;53212;52.112;5.144;2022-09-09T15:13:45;4.50;;;1.50;;
66402;SDS011;53212;52.112;5.144;2022-09-09T15:16:17;4.90;;;1.20;;
66402;SDS011;53212;52.112;5.144;2022-09-09T15:18:44;2.70;;;1.40;;
66402;SDS011;53212;52.112;5.144;2022-09-09T15:21:15;3.40;;;1.10;;
66402;SDS011;53212;52.112;5.144;2022-09-09T15:23:44;4.10;;;1.00;;
66402;SDS011;53212;52.112;5.144;2022-09-09T15:26:10;4.30;;;1.20;;
66402;SDS011;53212;52.112;5.144;2022-09-09T15:28:39;6.50;;;1.30;;
66402;SDS011;53212;52.112;5.144;2022-09-09T15:31:19;4.90;;;1.40;;
66402;SDS011;53212;52.112;5.144;2022-09-09T15:33:55;3.60;;;1.40;;
66402;SDS011;53212;52.112;5.144;2022-09-09T15:39:07;4.20;;;1.10;;
66402;SDS011;53212;52.112;5.144;2022-09-09T15:41:38;1.80;;;1.10;;
66402;SDS011;53212;52.112;5.144;2022-09-09T15:44:04;1.90;;;1.20;;
66402;SDS011;53212;52.112;5.144;2022-09-09T15:46:41;1.10;;;0.60;;
66402;SDS011;53212;52.112;5.144;2022-09-09T15:49:13;2.20;;;1.10;;
66402;SDS011;53212;52.112;5.144;2022-09-09T15:51:57;4.70;;;1.30;;
66402;SDS011;53212;52.112;5.144;2022-09-09T15:54:27;2.00;;;0.80;;
66402;SDS011;53212;52.112;5.144;2022-09-09T15:56:57;5.80;;;1.10;;
66402;SDS011;53212;52.112;5.144;2022-09-09T15:59:26;1.60;;;0.90;;
66402;SDS011;53212;52.112;5.144;2022-09-09T16:01:53;4.70;;;1.00;;
66402;SDS011;53212;52.112;5.144;2022-09-09T16:04:21;3.70;;;1.40;;
66402;SDS011;53212;52.112;5.144;2022-09-09T16:06:53;2.80;;;1.00;;
66402;SDS011;53212;52.112;5.144;2022-09-09T16:09:20;2.10;;;1.00;;
66402;SDS011;53212;52.112;5.144;2022-09-09T16:11:47;2.30;;;1.00;;
66402;SDS011;53212;52.112;5.144;2022-09-09T16:14:13;3.30;;;1.00;;
66402;SDS011;53212;52.112;5.144;2022-09-09T16:16:41;2.70;;;1.20;;
66402;SDS011;53212;52.112;5.144;2022-09-09T16:19:09;3.60;;;1.10;;
66402;SDS011;53212;52.112;5.144;2022-09-09T16:21:42;4.20;;;1.20;;
66402;SDS011;53212;52.112;5.144;2022-09-09T16:24:11;3.70;;;1.30;;
66402;SDS011;53212;52.112;5.144;2022-09-09T16:26:41;3.50;;;1.40;;
66402;SDS011;53212;52.112;5.144;2022-09-09T16:29:15;4.10;;;1.60;;
66402;SDS011;53212;52.112;5.144;2022-09-09T16:31:42;3.50;;;1.70;;
66402;SDS011;53212;52.112;5.144;2022-09-09T16:34:09;4.60;;;1.40;;
66402;SDS011;53212;52.112;5.144;2022-09-09T16:36:36;6.40;;;1.80;;
66402;SDS011;53212;52.112;5.144;2022-09-09T16:39:09;5.00;;;1.90;;
66402;SDS011;53212;52.112;5.144;2022-09-09T16:41:38;4.70;;;2.10;;
66402;SDS011;53212;52.112;5.144;2022-09-09T16:44:06;5.70;;;1.80;;
66402;SDS011;53212;52.112;5.144;2022-09-09T16:46:36;6.40;;;1.80;;
66402;SDS011;53212;52.112;5.144;2022-09-09T16:49:05;3.80;;;2.00;;
66402;SDS011;53212;52.112;5.144;2022-09-09T16:51:41;4.50;;;2.00;;
66402;SDS011;53212;52.112;5.144;2022-09-09T16:54:09;5.60;;;2.20;;
66402;SDS011;53212;52.112;5.144;2022-09-09T16:56:37;4.30;;;1.90;;
66402;SDS011;53212;52.112;5.144;2022-09-09T16:59:14;3.20;;;1.90;;
66402;SDS011;53212;52.112;5.144;2022-09-09T17:01:43;3.60;;;1.90;;
66402;SDS011;53212;52.112;5.144;2022-09-09T17:04:13;5.20;;;2.40;;
66402;SDS011;53212;52.112;5.144;2022-09-09T17:06:41;5.20;;;2.20;;
66402;SDS011;53212;52.112;5.144;2022-09-09T17:09:09;7.00;;;2.60;;
66402;SDS011;53212;52.112;5.144;2022-09-09T17:11:37;4.60;;;2.30;;
66402;SDS011;53212;52.112;5.144;2022-09-09T17:14:04;5.60;;;2.10;;
66402;SDS011;53212;52.112;5.144;2022-09-09T17:16:32;4.50;;;1.80;;
66402;SDS011;53212;52.112;5.144;2022-09-09T17:19:00;4.50;;;2.10;;
66402;SDS011;53212;52.112;5.144;2022-09-09T17:21:27;5.80;;;2.30;;
66402;SDS011;53212;52.112;5.144;2022-09-09T17:23:54;7.40;;;2.20;;
66402;SDS011;53212;52.112;5.144;2022-09-09T17:26:22;2.30;;;1.40;;
66402;SDS011;53212;52.112;5.144;2022-09-09T17:28:52;2.60;;;1.80;;
66402;SDS011;53212;52.112;5.144;2022-09-09T17:31:20;6.40;;;2.20;;
66402;SDS011;53212;52.112;5.144;2022-09-09T17:33:47;5.10;;;2.00;;
66402;SDS011;53212;52.112;5.144;2022-09-09T17:36:35;3.80;;;1.90;;
66402;SDS011;53212;52.112;5.144;2022-09-09T17:39:03;4.40;;;2.20;;
66402;SDS011;53212;52.112;5.144;2022-09-09T17:42:08;5.10;;;1.90;;